»·PEaware :: N335AK KPSP-KVNY

N335AK :: KPSP-KVNY

FLIGHT INFORMATION

Flight Status: Arrived
Operator: Privately registered:
United States
More flights under this callsign
Pilot: Gabor H. (24209)
Aircraft: Unknown
(EPIC)
More flights by this aircraft type
Origin: KPSP Palm Springs Intl
United States
Destination: KVNY Van Nuys
United States
More flights between these airports :: More routes between these airports
Route: CATH1 PSP V388 DEWAY POM VNY
File this flight plan on PilotEdge
Remarks:
Altitude:
(Current/Filed)
12,000ft
Speed:
(Current/Filed)
325kts
Departed: 15-Feb-21 03:53 PM
Arrived: 15-Feb-21 04:25 PM
Distance/Time
Traveled:
101nm/0:32
Distance/Time
To Go:
Arrived

Flight Plot

Page will automatically refresh every two minutes.

Flight plan parsing failed; only flown route is shown


Map Options




Map Legend


Flown Route
Filed Route
Departure Airport
Arrival Airport
Navaid (VOR, NDB)
Fix

Horizontal Profiles

Position Reports

Time Latitude Longitude Heading Altitude Ground
Speed
15-Feb-21 15:42 33.826459 -116.509345 179 480ft 0kts
15-Feb-21 15:43 33.826459 -116.509345 179 480ft 0kts
15-Feb-21 15:44 33.826459 -116.509345 179 480ft 0kts
15-Feb-21 15:45 33.826459 -116.509345 179 480ft 0kts
15-Feb-21 15:46 33.826459 -116.509345 179 480ft 0kts
15-Feb-21 15:47 33.826459 -116.509345 179 480ft 0kts
15-Feb-21 15:48 33.826021 -116.506965 17 480ft 17kts
15-Feb-21 15:49 33.831831 -116.511742 320 480ft 29kts
15-Feb-21 15:50 33.837774 -116.516478 329 480ft 22kts
15-Feb-21 15:51 33.839611 -116.517708 26 480ft 8kts
15-Feb-21 15:52 33.822541 -116.500475 142 952ft 170kts
15-Feb-21 15:53 33.806109 -116.449040 108 4288ft 171kts
15-Feb-21 15:54 33.832115 -116.420330 314 7325ft 176kts
15-Feb-21 15:55 33.849444 -116.476140 294 9971ft 200kts
15-Feb-21 15:56 33.873517 -116.540785 299 11993ft 225kts
15-Feb-21 15:57 33.903098 -116.618984 298 12022ft 276kts
15-Feb-21 15:58 33.935540 -116.705096 297 12036ft 288kts
15-Feb-21 15:59 33.956142 -116.799190 284 12056ft 295kts
15-Feb-21 16:00 33.968636 -116.896519 284 12072ft 294kts
15-Feb-21 16:01 33.981030 -116.994466 284 11924ft 294kts
15-Feb-21 16:02 33.993127 -117.090729 285 11919ft 284kts
15-Feb-21 16:03 34.004698 -117.183264 285 11919ft 275kts
15-Feb-21 16:04 34.015987 -117.274228 285 11919ft 272kts
15-Feb-21 16:05 34.027203 -117.365095 285 11918ft 275kts
15-Feb-21 16:06 34.038427 -117.456606 285 11907ft 274kts
15-Feb-21 16:07 34.049477 -117.547270 285 11906ft 272kts
15-Feb-21 16:08 34.060342 -117.636992 286 11905ft 270kts
15-Feb-21 16:09 34.071240 -117.727527 285 11912ft 270kts
15-Feb-21 16:10 34.084373 -117.815239 289 12014ft 263kts
15-Feb-21 16:11 34.102385 -117.902133 287 11773ft 270kts
15-Feb-21 16:12 34.120893 -117.991177 286 10804ft 278kts
15-Feb-21 16:13 34.139698 -118.082097 286 9951ft 263kts
15-Feb-21 16:14 34.156998 -118.166120 285 8943ft 259kts
15-Feb-21 16:15 34.171250 -118.252300 281 7854ft 266kts
15-Feb-21 16:16 34.184352 -118.341057 281 6655ft 270kts
15-Feb-21 16:17 34.196809 -118.427257 281 5279ft 251kts
15-Feb-21 16:18 34.209570 -118.508056 282 4009ft 232kts
15-Feb-21 16:19 34.238429 -118.566371 353 2763ft 193kts
15-Feb-21 16:20 34.269932 -118.544344 75 2476ft 125kts
15-Feb-21 16:21 34.271457 -118.506398 128 2167ft 100kts
15-Feb-21 16:22 34.246430 -118.494524 171 1633ft 106kts
15-Feb-21 16:23 34.216289 -118.490995 172 831ft 94kts
15-Feb-21 16:24 34.208039 -118.491083 202 776ft 0kts
15-Feb-21 16:25 34.208039 -118.491083 202 776ft 0kts
15-Feb-21 16:26 34.206581 -118.491516 241 772ft 11kts
15-Feb-21 16:27 34.206184 -118.492806 270 773ft 0kts
15-Feb-21 16:28 34.206184 -118.492806 270 773ft 0kts
15-Feb-21 16:29 34.206184 -118.492806 270 773ft 0kts
15-Feb-21 16:30 34.206184 -118.492806 270 773ft 0kts
15-Feb-21 16:31 34.206184 -118.492806 270 773ft 0kts
15-Feb-21 16:32 34.206184 -118.492806 270 773ft 0kts
15-Feb-21 16:33 34.206184 -118.492806 270 773ft 0kts
15-Feb-21 16:34 34.206184 -118.492806 270 773ft 0kts

Navigation Log

Ident Type
Flight plan parsing failed, navigation log unavailable